Time;durP1;ratioP1;P1;durP2;ratioP2;P2;SDS_P1;SDS_P2;PMS_P1;PMS_P2;Temp;Humidity;BMP_temperature;BMP_pressure;BME280_temperature;BME280_humidity;BME280_pressure;Samples;Min_cycle;Max_cycle;Signal;HPM_P1;HPM_P2
2023/08/29 00:00:08;;;;;;;19.70;17.70;;;;;;;26.87;63.20;99819.96;105184;1257;61415;-65
2023/08/29 00:02:41;;;;;;;20.90;18.70;;;;;;;26.84;63.09;99818.09;105054;1262;63783;-62
2023/08/29 00:05:10;;;;;;;19.00;16.90;;;;;;;26.80;62.96;99818.89;105157;1257;59732;-66
2023/08/29 00:07:38;;;;;;;19.80;17.80;;;;;;;26.78;63.14;99820.50;105242;1261;59535;-67
2023/08/29 00:10:06;;;;;;;20.50;18.40;;;;;;;26.75;63.01;99815.98;105021;1262;64210;-67
2023/08/29 00:12:34;;;;;;;22.70;20.30;;;;;;;26.72;62.93;99814.25;105160;1262;60188;-68
2023/08/29 00:15:04;;;;;;;22.40;18.60;;;;;;;26.65;62.81;99811.39;105206;1263;63887;-68
2023/08/29 00:17:32;;;;;;;22.20;20.00;;;;;;;26.59;62.79;99809.67;105101;1258;59841;-67
2023/08/29 00:20:00;;;;;;;20.60;18.40;;;;;;;26.58;62.71;99807.50;105221;1262;59605;-67
2023/08/29 00:22:28;;;;;;;21.10;18.50;;;;;;;26.58;62.53;99804.59;105206;1257;64166;-66
2023/08/29 00:24:56;;;;;;;22.30;19.30;;;;;;;26.56;62.52;99801.38;105213;1257;61495;-70
2023/08/29 00:27:24;;;;;;;19.30;17.50;;;;;;;26.48;62.55;99799.29;105239;1257;64230;-66
2023/08/29 00:29:51;;;;;;;21.10;19.10;;;;;;;26.36;62.81;99793.13;105214;1260;59634;-67
2023/08/29 00:32:19;;;;;;;22.60;19.70;;;;;;;26.24;63.09;99788.75;105038;1262;59666;-67
2023/08/29 00:34:46;;;;;;;21.50;19.30;;;;;;;26.15;63.55;99785.03;105098;1262;63148;-65
2023/08/29 00:37:14;;;;;;;22.10;19.80;;;;;;;26.10;63.64;99781.25;105300;1257;61514;-66
2023/08/29 00:39:42;;;;;;;20.50;18.40;;;;;;;26.05;63.82;99779.87;105100;1258;62523;-67
2023/08/29 00:42:09;;;;;;;21.90;19.50;;;;;;;26.02;64.15;99778.63;104947;1257;59746;-72
2023/08/29 00:44:38;;;;;;;20.80;18.70;;;;;;;26.05;64.32;99779.61;105087;1256;59750;-71
2023/08/29 00:47:05;;;;;;;22.40;20.10;;;;;;;26.06;64.45;99780.77;105293;1260;65592;-70
2023/08/29 00:49:36;;;;;;;21.90;19.50;;;;;;;26.03;64.46;99784.84;105002;1257;61434;-69
2023/08/29 00:52:05;;;;;;;20.70;18.50;;;;;;;26.00;64.61;99786.30;105049;1257;64183;-70
2023/08/29 00:54:33;;;;;;;22.90;19.90;;;;;;;26.07;64.39;99783.46;105305;1260;60351;-74
2023/08/29 00:57:02;;;;;;;20.60;18.20;;;;;;;26.13;64.28;99784.88;105067;1262;61128;-67
2023/08/29 00:59:29;;;;;;;20.30;18.30;;;;;;;26.20;64.20;99786.46;105220;1263;64637;-68
2023/08/29 01:01:57;;;;;;;22.70;20.30;;;;;;;26.22;63.97;99790.11;105317;1260;61323;-68
2023/08/29 01:04:25;;;;;;;23.40;20.00;;;;;;;26.17;63.95;99796.48;105127;1257;62854;-67
2023/08/29 01:06:55;;;;;;;22.60;20.20;;;;;;;26.09;64.15;99800.72;105315;1260;59711;-72
2023/08/29 01:09:23;;;;;;;21.40;19.10;;;;;;;26.06;64.18;99798.17;104927;1257;59730;-68
2023/08/29 01:12:16;;;;;;;21.80;19.60;;;;;;;26.12;63.96;99800.49;105367;1260;64134;-61
2023/08/29 01:14:47;;;;;;;20.90;18.70;;;;;;;26.16;63.92;99801.48;105276;1261;60088;-61
2023/08/29 01:17:35;;;;;;;21.00;18.90;;;;;;;26.19;63.98;99803.55;105304;1258;63720;-60
2023/08/29 01:20:05;;;;;;;22.40;20.10;;;;;;;26.15;64.07;99809.09;106515;1261;59650;-60
2023/08/29 01:23:18;;;;;;;23.10;20.30;;;;;;;26.15;64.17;99812.95;105155;1262;59567;-59
2023/08/29 01:26:11;;;;;;;23.60;21.10;;;;;;;26.09;64.47;99816.79;104808;1260;64289;-61
2023/08/29 01:28:42;;;;;;;22.80;20.50;;;;;;;26.03;64.49;99814.99;105181;1258;61303;-61
2023/08/29 01:31:10;;;;;;;21.60;19.50;;;;;;;25.99;64.24;99815.28;105213;1257;62444;-60
2023/08/29 01:33:42;;;;;;;22.00;19.80;;;;;;;25.95;63.96;99815.59;105559;1257;59724;-60
2023/08/29 01:36:10;;;;;;;24.40;21.20;;;;;;;25.94;63.87;99815.92;105302;1263;59549;-59
2023/08/29 01:38:37;;;;;;;24.20;20.60;;;;;;;25.91;63.82;99814.06;105236;1258;64133;-64
2023/08/29 01:41:05;;;;;;;22.70;20.10;;;;;;;25.86;63.80;99813.85;105202;1257;60243;-64
2023/08/29 01:43:34;;;;;;;21.50;19.20;;;;;;;25.79;63.96;99812.86;105386;1260;63832;-59
2023/08/29 01:46:01;;;;;;;20.30;18.00;;;;;;;25.76;64.16;99816.88;105273;1257;59656;-59
2023/08/29 01:48:29;;;;;;;23.20;20.50;;;;;;;25.75;64.32;99814.82;105042;1263;59596;-62
2023/08/29 01:50:57;;;;;;;21.40;19.30;;;;;;;25.73;64.39;99808.69;105133;1257;64235;-63
2023/08/29 01:53:25;;;;;;;24.00;19.40;;;;;;;25.70;64.69;99806.02;104842;1257;61362;-61
2023/08/29 01:55:52;;;;;;;23.20;20.80;;;;;;;25.68;64.94;99806.10;104987;1257;64265;-61
2023/08/29 01:58:19;;;;;;;24.70;22.10;;;;;;;25.67;65.00;99804.77;105297;1257;60789;-62
2023/08/29 02:00:47;;;;;;;24.30;21.40;;;;;;;25.59;64.94;99806.11;105218;1260;59838;-61
2023/08/29 02:03:15;;;;;;;22.30;19.80;;;;;;;25.55;64.87;99810.55;104868;1257;64807;-61
2023/08/29 02:05:44;;;;;;;22.70;20.50;;;;;;;25.55;64.90;99812.33;105129;1259;60356;-61
2023/08/29 02:08:11;;;;;;;22.50;20.30;;;;;;;25.58;64.72;99816.45;105264;1261;63743;-60
2023/08/29 02:10:39;;;;;;;24.20;21.80;;;;;;;25.57;64.51;99819.33;105123;1257;59732;-60
2023/08/29 02:13:06;;;;;;;25.10;22.50;;;;;;;25.55;64.51;99815.63;105182;1263;59718;-60
2023/08/29 02:15:34;;;;;;;24.20;20.90;;;;;;;25.57;64.41;99816.04;105052;1263;64277;-62
2023/08/29 02:18:02;;;;;;;24.40;21.80;;;;;;;25.58;64.60;99817.56;105333;1262;60102;-61
2023/08/29 02:20:30;;;;;;;22.60;20.20;;;;;;;25.59;64.76;99816.24;105370;1260;63677;-66
2023/08/29 02:22:58;;;;;;;22.50;20.10;;;;;;;25.62;64.76;99815.55;105201;1261;59580;-60
2023/08/29 02:25:26;;;;;;;23.10;20.20;;;;;;;25.64;64.74;99814.41;105147;1262;59718;-63
2023/08/29 02:27:54;;;;;;;22.60;20.30;;;;;;;25.65;64.63;99812.86;105296;1263;64097;-62
2023/08/29 02:30:23;;;;;;;23.70;21.30;;;;;;;25.64;64.60;99815.01;105265;1257;61894;-62
2023/08/29 02:32:54;;;;;;;23.90;21.50;;;;;;;25.60;64.43;99817.02;105385;1262;64304;-59
2023/08/29 02:35:22;;;;;;;24.20;21.00;;;;;;;25.53;64.38;99818.91;105027;1261;59780;-63
2023/08/29 02:37:50;;;;;;;24.00;20.50;;;;;;;25.49;64.42;99815.33;105347;1255;59696;-61
2023/08/29 02:40:18;;;;;;;21.20;19.10;;;;;;;25.49;64.56;99817.48;105151;1256;62897;-60
2023/08/29 02:42:45;;;;;;;20.60;18.60;;;;;;;25.49;64.60;99819.96;105099;1257;60624;-60
2023/08/29 02:45:13;;;;;;;23.20;20.80;;;;;;;25.49;64.61;99820.34;105034;1263;62423;-60
2023/08/29 02:47:41;;;;;;;23.20;20.90;;;;;;;25.48;64.48;99820.25;104972;1258;59755;-60
2023/08/29 02:50:09;;;;;;;23.20;20.50;;;;;;;25.44;64.44;99822.47;105068;1257;59746;-60
2023/08/29 02:52:37;;;;;;;25.90;21.90;;;;;;;25.38;64.33;99829.57;105297;1262;64250;-61
2023/08/29 02:55:06;;;;;;;23.40;21.00;;;;;;;25.33;64.30;99830.86;105014;1257;60161;-62
2023/08/29 02:57:33;;;;;;;22.90;20.60;;;;;;;25.27;64.44;99829.13;104951;1257;63241;-60
2023/08/29 03:00:01;;;;;;;27.90;20.70;;;;;;;25.22;64.58;99830.19;105228;1256;59765;-65
2023/08/29 03:02:28;;;;;;;27.70;20.00;;;;;;;25.21;64.68;99832.27;105148;1263;59717;-60
2023/08/29 03:04:56;;;;;;;22.60;20.50;;;;;;;25.22;64.84;99826.63;105046;1257;71266;-60
2023/08/29 03:07:24;;;;;;;24.40;21.90;;;;;;;25.21;65.06;99827.63;106124;1257;61968;-60
2023/08/29 03:09:52;;;;;;;25.50;22.90;;;;;;;25.18;65.22;99834.35;105128;1263;62503;-60
2023/08/29 03:12:20;;;;;;;23.80;21.50;;;;;;;25.15;65.31;99833.63;105391;1257;60564;-59
2023/08/29 03:14:53;;;;;;;25.50;21.80;;;;;;;25.15;65.38;99834.68;105496;1258;60449;-61
2023/08/29 03:17:21;;;;;;;22.70;20.40;;;;;;;25.17;65.35;99836.80;105046;1263;64989;-61
2023/08/29 03:19:49;;;;;;;23.80;21.20;;;;;;;25.20;65.39;99835.73;105351;1262;61306;-61
2023/08/29 03:22:17;;;;;;;25.40;22.00;;;;;;;25.21;65.46;99835.98;104976;1261;63674;-60
2023/08/29 03:24:46;;;;;;;24.60;22.20;;;;;;;25.22;65.46;99835.20;105113;1263;60588;-60
2023/08/29 03:27:14;;;;;;;25.40;22.90;;;;;;;25.23;65.37;99837.59;105380;1263;60396;-61
2023/08/29 03:29:41;;;;;;;25.20;21.60;;;;;;;25.22;65.40;99837.89;105015;1257;74223;-61
2023/08/29 03:32:09;;;;;;;26.50;22.10;;;;;;;25.21;65.31;99839.05;104984;1265;61341;-60
2023/08/29 03:34:37;;;;;;;25.20;22.50;;;;;;;25.22;65.39;99841.11;105036;1261;62539;-62
2023/08/29 03:37:07;;;;;;;24.10;21.60;;;;;;;25.26;65.30;99843.76;105113;1257;60486;-68
2023/08/29 03:39:34;;;;;;;25.50;22.80;;;;;;;25.30;65.17;99844.00;105110;1263;60546;-59
2023/08/29 03:42:02;;;;;;;24.70;22.20;;;;;;;25.33;64.90;99845.56;105272;1267;63663;-66
2023/08/29 03:44:29;;;;;;;25.80;23.20;;;;;;;25.35;64.91;99848.67;105654;1263;61534;-65
2023/08/29 03:46:57;;;;;;;25.00;22.00;;;;;;;25.36;65.04;99850.31;105068;1257;63848;-59
2023/08/29 03:49:25;;;;;;;24.70;22.10;;;;;;;25.39;64.95;99849.89;104836;1258;60667;-57
2023/08/29 03:51:52;;;;;;;24.20;21.80;;;;;;;25.42;65.01;99855.06;104778;1263;59495;-63
2023/08/29 03:54:20;;;;;;;23.60;21.20;;;;;;;25.42;65.18;99856.96;104967;1258;63643;-63
2023/08/29 03:56:48;;;;;;;24.70;22.40;;;;;;;25.42;65.45;99860.66;104940;1264;61395;-65
2023/08/29 03:59:16;;;;;;;24.10;21.70;;;;;;;25.40;65.57;99857.61;108554;1257;63681;-60
2023/08/29 04:02:08;;;;;;;23.70;21.20;;;;;;;25.43;65.68;99854.18;107879;1262;59196;-63
2023/08/29 04:04:39;;;;;;;24.50;21.80;;;;;;;25.53;65.47;99849.52;105050;1258;60616;-62
2023/08/29 04:07:07;;;;;;;25.40;22.90;;;;;;;25.64;65.22;99845.23;104363;1267;65037;-67
2023/08/29 04:09:35;;;;;;;24.60;22.20;;;;;;;25.73;65.13;99846.13;104771;1257;61367;-63
2023/08/29 04:12:04;;;;;;;23.70;21.30;;;;;;;25.81;65.01;99849.64;105385;1257;62431;-59
2023/08/29 04:14:37;;;;;;;24.80;22.20;;;;;;;25.87;64.97;99849.27;105252;1263;60452;-67
2023/08/29 04:17:05;;;;;;;24.10;21.70;;;;;;;25.93;64.86;99852.93;105426;1257;60681;-59
2023/08/29 04:19:33;;;;;;;23.90;21.50;;;;;;;25.96;64.96;99856.41;105000;1261;64857;-60
2023/08/29 04:22:01;;;;;;;24.20;21.80;;;;;;;25.97;64.89;99855.04;105611;1263;62394;-58
2023/08/29 04:24:29;;;;;;;23.50;20.50;;;;;;;26.01;64.79;99862.39;104940;1259;63784;-61
2023/08/29 04:26:57;;;;;;;25.20;22.00;;;;;;;26.06;64.77;99869.52;105246;1261;60570;-60
2023/08/29 04:29:24;;;;;;;26.50;23.90;;;;;;;26.13;64.75;99878.60;105179;1261;60344;-63
2023/08/29 04:31:52;;;;;;;26.70;23.80;;;;;;;26.25;64.40;99878.34;105401;1258;64936;-63
2023/08/29 04:34:23;;;;;;;26.40;23.80;;;;;;;26.32;64.25;99880.92;105137;1260;61830;-64
2023/08/29 04:36:51;;;;;;;26.90;24.20;;;;;;;26.36;64.23;99881.60;105084;1262;63720;-67
2023/08/29 04:39:21;;;;;;;24.80;22.10;;;;;;;26.38;64.48;99882.66;105781;1257;60553;-68
2023/08/29 04:41:50;;;;;;;25.90;23.30;;;;;;;26.44;64.49;99885.95;105127;1254;60446;-64
2023/08/29 04:44:17;;;;;;;24.90;22.40;;;;;;;26.48;64.35;99886.48;105432;1260;64999;-61
2023/08/29 04:46:45;;;;;;;26.00;23.30;;;;;;;26.52;64.31;99882.45;105394;1260;61793;-70
2023/08/29 04:49:12;;;;;;;25.70;23.00;;;;;;;26.59;64.39;99874.92;106133;1260;62522;-72
2023/08/29 04:51:40;;;;;;;26.30;22.50;;;;;;;26.68;64.38;99872.69;106217;1260;60537;-71
2023/08/29 04:54:08;;;;;;;26.20;23.20;;;;;;;26.77;64.01;99869.50;106225;1260;60628;-68
2023/08/29 04:56:35;;;;;;;26.90;24.40;;;;;;;26.86;63.89;99868.96;106273;1260;64956;-68
2023/08/29 04:59:03;;;;;;;24.40;21.90;;;;;;;26.93;63.44;99871.07;106044;1260;61359;-60
2023/08/29 05:01:31;;;;;;;26.10;23.40;;;;;;;26.96;63.11;99873.88;106761;1257;63704;-67
2023/08/29 05:03:59;;;;;;;24.40;21.70;;;;;;;27.00;63.14;99870.45;105276;1260;60697;-65
2023/08/29 05:06:27;;;;;;;25.20;21.70;;;;;;;27.07;63.00;99868.13;105085;1260;60469;-59
2023/08/29 05:08:54;;;;;;;30.00;24.70;;;;;;;27.14;62.70;99868.84;105592;1260;64972;-60
2023/08/29 05:11:23;;;;;;;25.40;22.80;;;;;;;27.18;62.35;99867.79;105305;1254;61483;-61
2023/08/29 05:13:54;;;;;;;26.40;23.60;;;;;;;27.20;62.06;99865.05;104938;1263;62451;-60
2023/08/29 05:16:22;;;;;;;25.20;22.70;;;;;;;27.20;61.93;99865.48;104930;1260;60517;-60
2023/08/29 05:18:50;;;;;;;22.60;20.20;;;;;;;27.21;61.32;99873.45;104722;1258;60627;-60
2023/08/29 05:21:17;;;;;;;25.20;22.50;;;;;;;27.20;60.90;99873.77;104938;1257;65346;-60
2023/08/29 05:24:41;;;;;;;26.50;23.90;;;;;;;27.19;60.89;99874.61;105023;1263;61357;-60
2023/08/29 05:27:08;;;;;;;24.90;22.10;;;;;;;27.21;60.89;99875.10;105294;1262;63768;-60
2023/08/29 05:29:36;;;;;;;25.60;23.00;;;;;;;27.23;60.77;99878.72;105056;1265;60482;-61
2023/08/29 05:32:06;;;;;;;26.00;23.10;;;;;;;27.30;60.63;99880.85;105266;1257;61666;-60
2023/08/29 05:34:34;;;;;;;23.20;20.80;;;;;;;27.38;60.71;99884.16;104971;1257;65047;-70
2023/08/29 05:37:03;;;;;;;24.00;21.70;;;;;;;27.45;60.41;99883.14;104979;1264;60401;-65
2023/08/29 05:39:30;;;;;;;24.10;21.50;;;;;;;27.53;60.26;99884.08;104935;1264;63796;-63
2023/08/29 05:41:58;;;;;;;25.20;22.70;;;;;;;27.59;60.05;99885.23;104859;1271;60848;-63
2023/08/29 05:44:25;;;;;;;26.80;23.80;;;;;;;27.66;60.20;99889.12;105165;1263;60363;-61
2023/08/29 05:46:53;;;;;;;23.40;21.10;;;;;;;27.68;59.69;99889.21;105411;1254;64912;-61
2023/08/29 05:49:20;;;;;;;24.90;22.30;;;;;;;27.71;59.70;99886.59;105229;1262;60545;-62
2023/08/29 05:51:48;;;;;;;25.60;23.10;;;;;;;27.77;59.59;99888.35;105265;1255;63720;-68
2023/08/29 05:54:19;;;;;;;27.00;21.20;;;;;;;27.83;59.68;99883.25;105326;1256;60671;-60
2023/08/29 05:57:25;;;;;;;26.20;23.50;;;;;;;27.90;59.88;99881.02;105344;1260;60459;-60
2023/08/29 05:59:53;;;;;;;23.90;21.30;;;;;;;27.98;59.89;99876.56;105509;1258;65000;-62
2023/08/29 06:02:21;;;;;;;25.30;22.60;;;;;;;28.02;59.24;99871.75;105421;1255;61527;-66
2023/08/29 06:04:50;;;;;;;25.80;22.30;;;;;;;28.03;59.10;99866.41;105438;1261;63759;-60
2023/08/29 06:07:17;;;;;;;25.50;22.80;;;;;;;28.07;58.60;99868.95;105251;1254;60441;-63
2023/08/29 06:09:45;;;;;;;26.20;22.40;;;;;;;28.10;58.49;99872.50;105174;1260;60393;-67
2023/08/29 06:12:12;;;;;;;23.60;21.30;;;;;;;28.12;58.37;99876.48;105244;1260;64872;-64
2023/08/29 06:14:40;;;;;;;25.00;22.50;;;;;;;28.15;58.21;99879.33;105206;1259;60497;-66
2023/08/29 06:17:07;;;;;;;26.50;23.70;;;;;;;28.22;58.18;99881.84;105438;1257;63775;-62
2023/08/29 06:19:35;;;;;;;26.10;23.30;;;;;;;28.28;58.37;99879.98;105387;1260;60450;-62
2023/08/29 06:22:03;;;;;;;26.50;23.80;;;;;;;28.34;57.95;99877.05;105212;1255;60552;-62
2023/08/29 06:24:31;;;;;;;25.10;22.50;;;;;;;28.37;58.00;99876.39;106372;1254;65858;-68
2023/08/29 06:27:00;;;;;;;26.00;22.00;;;;;;;28.44;57.99;99876.63;106706;1260;60541;-60
2023/08/29 06:29:28;;;;;;;23.70;21.10;;;;;;;28.53;57.89;99882.15;105885;1258;64729;-73
2023/08/29 06:31:56;;;;;;;23.60;21.30;;;;;;;28.64;57.91;99885.75;105428;1261;60581;-59
2023/08/29 06:34:24;;;;;;;28.60;22.90;;;;;;;28.72;57.90;99884.81;105153;1257;60915;-61
2023/08/29 06:36:51;;;;;;;24.30;21.80;;;;;;;28.75;57.73;99887.23;105118;1256;65400;-62
2023/08/29 06:39:47;;;;;;;24.80;22.30;;;;;;;28.77;57.44;99886.43;105059;1254;61268;-60
2023/08/29 06:42:15;;;;;;;26.40;23.60;;;;;;;28.83;57.28;99882.05;105521;1258;63957;-61
2023/08/29 06:44:43;;;;;;;22.90;20.70;;;;;;;28.91;57.47;99879.63;105064;1260;61278;-62
2023/08/29 06:47:10;;;;;;;24.20;21.70;;;;;;;29.00;57.55;99875.21;105414;1257;60440;-61
2023/08/29 06:49:38;;;;;;;25.10;22.60;;;;;;;29.11;57.22;99879.27;105129;1257;65213;-62
2023/08/29 06:52:05;;;;;;;24.90;22.60;;;;;;;29.18;57.06;99880.37;105171;1257;61428;-64
2023/08/29 06:54:45;;;;;;;26.20;23.20;;;;;;;29.25;57.01;99877.73;105159;1259;62645;-61
2023/08/29 06:57:13;;;;;;;29.30;24.20;;;;;;;29.28;56.74;99877.10;105332;1260;60577;-61
2023/08/29 06:59:40;;;;;;;23.60;21.40;;;;;;;29.30;56.84;99871.68;105256;1254;60469;-61
2023/08/29 07:02:08;;;;;;;25.10;22.70;;;;;;;29.35;56.71;99873.08;105294;1261;64920;-60
2023/08/29 07:04:36;;;;;;;27.10;23.10;;;;;;;29.38;56.60;99871.60;105616;1254;61829;-65
2023/08/29 07:07:05;;;;;;;27.40;24.70;;;;;;;29.41;56.85;99872.80;105352;1254;62586;-61
2023/08/29 07:09:34;;;;;;;25.10;22.60;;;;;;;29.43;57.03;99871.04;105578;1254;60616;-61
2023/08/29 07:12:02;;;;;;;24.40;21.90;;;;;;;29.46;56.79;99875.77;105313;1254;60653;-61
2023/08/29 07:14:30;;;;;;;25.00;22.40;;;;;;;29.47;56.63;99880.22;105340;1254;64978;-58
2023/08/29 07:17:07;;;;;;;24.60;22.20;;;;;;;29.49;56.65;99880.07;105280;1262;72365;-60
2023/08/29 07:20:08;;;;;;;25.30;22.00;;;;;;;29.57;56.16;99881.96;105288;1257;63736;-59
2023/08/29 07:22:43;;;;;;;26.70;24.00;;;;;;;29.67;56.14;99878.77;105269;1260;60556;-59
2023/08/29 07:25:11;;;;;;;24.90;22.30;;;;;;;29.72;56.28;99878.15;105347;1254;60942;-59
2023/08/29 07:27:41;;;;;;;26.00;23.30;;;;;;;29.75;55.88;99882.41;105251;1260;64923;-60
2023/08/29 07:30:14;;;;;;;27.30;24.20;;;;;;;29.80;55.56;99880.07;105181;1257;60449;-59
2023/08/29 07:32:44;;;;;;;25.40;23.00;;;;;;;29.84;55.25;99874.29;105447;1260;62513;-59
2023/08/29 07:35:13;;;;;;;25.40;22.80;;;;;;;29.90;55.46;99875.84;105346;1257;60472;-60
2023/08/29 07:37:41;;;;;;;25.70;23.10;;;;;;;29.98;55.59;99876.27;105365;1261;60386;-59
2023/08/29 07:40:27;;;;;;;23.40;21.10;;;;;;;30.04;55.35;99877.75;105566;1261;64968;-61
2023/08/29 07:43:27;;;;;;;26.20;23.00;;;;;;;30.11;55.33;99877.35;106033;1257;62579;-60
2023/08/29 07:45:58;;;;;;;26.30;23.50;;;;;;;30.18;55.21;99877.70;107808;1254;62773;-59
2023/08/29 07:48:34;;;;;;;27.20;24.50;;;;;;;30.25;55.21;99879.36;106235;1257;60493;-57
2023/08/29 07:51:03;;;;;;;27.20;24.40;;;;;;;30.31;54.88;99877.36;105287;1260;60358;-57
2023/08/29 07:53:31;;;;;;;25.80;23.20;;;;;;;30.39;55.24;99879.86;105285;1258;64918;-55
2023/08/29 07:55:58;;;;;;;26.20;23.70;;;;;;;30.49;55.21;99880.65;105243;1254;62336;-60
2023/08/29 07:58:26;;;;;;;28.20;24.20;;;;;;;30.61;54.47;99882.15;105316;1257;63760;-58
2023/08/29 08:01:19;;;;;;;26.60;23.80;;;;;;;30.70;54.56;99885.11;105204;1260;61016;-60
2023/08/29 08:03:47;;;;;;;24.60;22.10;;;;;;;30.79;54.44;99883.27;105339;1259;60363;-58
2023/08/29 08:06:15;;;;;;;25.90;23.20;;;;;;;30.87;53.87;99881.98;105510;1260;64906;-58
2023/08/29 08:08:43;;;;;;;24.70;22.10;;;;;;;30.94;53.74;99879.89;105208;1254;61396;-63
2023/08/29 08:11:10;;;;;;;24.60;21.80;;;;;;;31.03;53.15;99878.00;105312;1260;63872;-72
2023/08/29 08:13:38;;;;;;;24.40;22.00;;;;;;;31.09;52.72;99875.77;105182;1261;60491;-70
2023/08/29 08:16:05;;;;;;;25.40;22.70;;;;;;;31.10;52.79;99878.16;105151;1259;60473;-67
2023/08/29 08:18:33;;;;;;;23.00;20.90;;;;;;;31.16;52.44;99874.95;105270;1254;63755;-65
2023/08/29 08:21:29;;;;;;;25.20;21.70;;;;;;;31.24;52.47;99878.77;105904;1260;61372;-69
2023/08/29 08:23:56;;;;;;;24.30;21.70;;;;;;;31.31;52.37;99876.14;105400;1260;62472;-64
2023/08/29 08:26:24;;;;;;;24.60;22.00;;;;;;;31.37;51.93;99876.25;105242;1258;60568;-66
2023/08/29 08:28:54;;;;;;;25.50;21.90;;;;;;;31.40;51.76;99881.25;105417;1254;60724;-63
2023/08/29 08:31:22;;;;;;;24.00;21.60;;;;;;;31.42;51.31;99875.70;105261;1254;63728;-64
2023/08/29 08:33:50;;;;;;;24.90;22.40;;;;;;;31.42;51.26;99873.73;105381;1254;62360;-65
2023/08/29 08:36:17;;;;;;;23.20;21.00;;;;;;;31.42;51.61;99873.80;105132;1254;62510;-66
2023/08/29 08:38:45;;;;;;;22.60;20.20;;;;;;;31.47;51.54;99870.20;105185;1259;60610;-66
2023/08/29 08:41:12;;;;;;;23.40;20.90;;;;;;;31.55;51.32;99868.15;105243;1254;60568;-66
2023/08/29 08:43:41;;;;;;;27.70;21.70;;;;;;;31.60;51.53;99872.98;105383;1254;63650;-63
2023/08/29 08:46:08;;;;;;;23.80;21.10;;;;;;;31.66;51.23;99874.01;105440;1257;61342;-62
2023/08/29 08:48:36;;;;;;;22.40;20.10;;;;;;;31.70;50.61;99872.84;105489;1260;64043;-63
2023/08/29 08:51:04;;;;;;;23.20;19.80;;;;;;;31.75;50.49;99872.56;105422;1255;60511;-67
2023/08/29 08:53:36;;;;;;;22.40;19.40;;;;;;;31.81;50.16;99868.24;105390;1254;60353;-68
2023/08/29 08:56:57;;;;;;;22.10;19.00;;;;;;;31.87;49.51;99867.36;104673;1254;66042;-68
2023/08/29 08:59:25;;;;;;;23.20;19.50;;;;;;;31.90;48.66;99862.88;105302;1260;69143;-65
2023/08/29 09:01:56;;;;;;;20.20;18.10;;;;;;;31.94;48.48;99860.42;105374;1258;63707;-64
2023/08/29 09:04:24;;;;;;;21.70;19.60;;;;;;;31.99;48.95;99858.11;105487;1256;60485;-66
2023/08/29 09:06:52;;;;;;;21.20;19.20;;;;;;;32.07;48.42;99855.05;105204;1257;60844;-70
2023/08/29 09:09:23;;;;;;;21.30;18.80;;;;;;;32.08;48.30;99857.55;105383;1255;64961;-69
2023/08/29 09:11:55;;;;;;;21.50;17.50;;;;;;;32.11;47.07;99854.77;105342;1254;61447;-68
2023/08/29 09:14:23;;;;;;;20.30;17.90;;;;;;;32.16;46.56;99857.64;105193;1258;66562;-69
2023/08/29 09:17:16;;;;;;;21.10;18.90;;;;;;;32.24;46.81;99858.42;105343;1257;60537;-58
2023/08/29 09:19:44;;;;;;;20.30;18.20;;;;;;;32.30;46.78;99856.15;105344;1254;60549;-59
2023/08/29 09:22:12;;;;;;;19.70;17.70;;;;;;;32.33;46.61;99854.33;105118;1257;63767;-60
2023/08/29 09:25:03;;;;;;;19.40;17.50;;;;;;;32.38;45.84;99851.31;105087;1263;61324;-59
2023/08/29 09:27:46;;;;;;;19.60;17.30;;;;;;;32.45;45.77;99849.91;105273;1257;63254;-57
2023/08/29 09:30:18;;;;;;;18.40;16.50;;;;;;;32.58;45.34;99846.36;105283;1260;61681;-60
2023/08/29 09:32:50;;;;;;;20.30;18.20;;;;;;;32.67;45.42;99848.88;105323;1258;60344;-60
2023/08/29 09:35:21;;;;;;;20.90;18.70;;;;;;;32.73;45.02;99846.16;105309;1256;63731;-60
2023/08/29 09:37:51;;;;;;;19.80;17.80;;;;;;;32.77;44.55;99846.41;105460;1257;60881;-60
2023/08/29 09:40:20;;;;;;;18.80;16.40;;;;;;;32.83;44.54;99845.54;105359;1257;63820;-57
2023/08/29 09:43:06;;;;;;;19.20;17.00;;;;;;;32.92;44.33;99848.80;105359;1257;60583;-59
2023/08/29 09:45:59;;;;;;;20.20;17.10;;;;;;;33.01;44.27;99849.92;105204;1255;60633;-58
2023/08/29 09:48:28;;;;;;;20.40;16.90;;;;;;;33.12;44.19;99851.05;105500;1254;65044;-58
2023/08/29 09:51:28;;;;;;;19.90;17.90;;;;;;;33.19;43.85;99850.98;105472;1254;61815;-58
2023/08/29 09:54:46;;;;;;;19.60;17.50;;;;;;;33.25;43.50;99849.04;105523;1260;62645;-57
2023/08/29 09:57:35;;;;;;;22.50;18.00;;;;;;;33.28;43.17;99844.05;105361;1257;60539;-58
2023/08/29 10:00:04;;;;;;;20.90;18.80;;;;;;;33.29;43.43;99845.07;105692;1257;60633;-57
2023/08/29 10:02:32;;;;;;;20.60;17.50;;;;;;;33.30;43.58;99843.59;105544;1255;65076;-59
2023/08/29 10:05:06;;;;;;;20.20;17.90;;;;;;;33.32;43.80;99843.52;105344;1254;61352;-58
2023/08/29 10:07:47;;;;;;;20.40;18.40;;;;;;;33.37;43.81;99839.98;105432;1260;62444;-58
2023/08/29 10:10:18;;;;;;;19.00;15.90;;;;;;;33.42;42.95;99834.96;105373;1255;60473;-57
2023/08/29 10:16:51;;;;;;;18.60;16.70;;;;;;;33.63;43.55;99834.47;105086;1254;65000;-56
2023/08/29 10:19:49;;;;;;;19.70;17.70;;;;;;;33.76;43.37;99833.52;105393;1259;60470;-57
2023/08/29 10:22:36;;;;;;;19.60;17.40;;;;;;;33.90;42.96;99835.38;105268;1257;63697;-58
2023/08/29 10:28:53;;;;;;;19.30;16.50;;;;;;;34.11;41.32;99829.52;105318;1260;62518;-56
2023/08/29 10:31:20;;;;;;;18.70;16.70;;;;;;;34.21;40.95;99831.50;105281;1260;63658;-57
2023/08/29 10:33:48;;;;;;;18.50;16.60;;;;;;;34.30;40.65;99829.73;105169;1261;60578;-58
2023/08/29 10:36:16;;;;;;;18.10;16.20;;;;;;;34.38;40.73;99830.07;105132;1257;63737;-58
2023/08/29 10:38:46;;;;;;;17.40;15.60;;;;;;;34.44;40.75;99829.98;105163;1258;60539;-58
2023/08/29 10:41:14;;;;;;;19.60;16.10;;;;;;;34.53;40.27;99834.27;105333;1257;60482;-59
2023/08/29 10:43:44;;;;;;;19.10;17.10;;;;;;;34.63;40.30;99838.44;105321;1254;63783;-58
2023/08/29 10:46:20;;;;;;;21.80;17.20;;;;;;;34.70;39.77;99835.12;105355;1260;61439;-58
2023/08/29 10:48:48;;;;;;;19.30;17.20;;;;;;;34.74;39.48;99834.69;105410;1257;71531;-59
2023/08/29 10:51:22;;;;;;;19.00;16.80;;;;;;;34.78;39.25;99834.63;105961;1254;60451;-57
2023/08/29 10:53:56;;;;;;;19.80;17.50;;;;;;;34.77;39.09;99835.29;105176;1262;60508;-59
2023/08/29 10:56:27;;;;;;;18.10;16.30;;;;;;;34.76;38.96;99832.41;105432;1254;64933;-60
2023/08/29 10:58:55;;;;;;;18.50;16.70;;;;;;;34.75;39.04;99829.31;105671;1254;61459;-57
2023/08/29 11:01:33;;;;;;;18.60;16.90;;;;;;;34.79;39.23;99827.56;105300;1254;62427;-59
2023/08/29 11:04:03;;;;;;;19.40;17.40;;;;;;;34.85;39.44;99829.92;105084;1254;330383;-58
2023/08/29 11:08:23;;;;;;;19.40;16.70;;;;;;;34.66;39.43;99834.34;102476;1295;601083;-58
2023/08/29 11:11:24;;;;;;;18.00;16.20;;;;;;;34.89;39.06;99832.05;104422;1272;59341;-57
2023/08/29 11:14:06;;;;;;;19.10;16.50;;;;;;;34.98;38.48;99830.20;104570;1269;59367;-58
2023/08/29 11:16:37;;;;;;;17.50;15.50;;;;;;;35.05;38.18;99828.66;104520;1270;70070;-56
2023/08/29 11:19:15;;;;;;;17.90;16.10;;;;;;;35.08;37.65;99824.86;103623;1270;61506;-51
2023/08/29 11:21:44;;;;;;;17.30;15.60;;;;;;;35.13;37.38;99826.33;104322;1267;281962;-57
2023/08/29 11:24:12;;;;;;;18.10;15.90;;;;;;;35.22;37.91;99827.65;105075;1264;59368;-60
2023/08/29 11:26:44;;;;;;;16.90;15.00;;;;;;;35.32;37.72;99831.14;104713;1264;59880;-56
2023/08/29 11:29:12;;;;;;;16.30;14.60;;;;;;;35.41;36.91;99830.23;104975;1269;62106;-61
2023/08/29 11:31:40;;;;;;;17.50;14.70;;;;;;;35.48;36.56;99823.90;104847;1267;61557;-57
2023/08/29 11:34:18;;;;;;;18.50;15.40;;;;;;;35.57;36.29;99825.20;104808;1268;62521;-55
2023/08/29 11:36:48;;;;;;;18.40;15.40;;;;;;;35.65;35.92;99825.32;105061;1267;59656;-56